< < Back
Terminal Aerodrome Forecast


Current Version              Previous Versions:   1  2  3  4  5  6  7  8  9  

Terminal Aerodrome Forecast

671
FTUS42 KMLB 301700
TAFDAB
TAF
KDAB 301734Z 3018/0118 27006KT P6SM VCSH SCT028 BKN035 OVC040
      TEMPO 3018/3020 3SM SHRA BKN025
     FM302000 01008KT P6SM SCT020 OVC040
      TEMPO 3020/3023 2SM SHRA BKN020
     FM010000 01005KT P6SM VCSH SCT020 BKN100
     FM011300 03006KT P6SM SCT015 BKN035=



Latest METAR

360
SAUS80 KWBC 302000
MTRDAB
METAR KDAB 301953Z 02008KT 10SM SCT028 BKN039 OVC070 29/23 A2981 RMK AO2
SLP094 T02890228


USA.gov is the U.S. government's official web portal to all federal, state and local government web resources and services.